sensor_id;sensor_type;location;lat;lon;timestamp;P1;durP1;ratioP1;P2;durP2;ratioP2
68921;SDS011;55959;51.244;5.724;2022-07-25T00:00:33;8.18;;;7.40;;
68921;SDS011;55959;51.244;5.724;2022-07-25T00:03:00;7.70;;;7.10;;
68921;SDS011;55959;51.244;5.724;2022-07-25T00:05:26;7.25;;;6.65;;
68921;SDS011;55959;51.244;5.724;2022-07-25T00:07:52;7.00;;;6.30;;
68921;SDS011;55959;51.244;5.724;2022-07-25T00:10:18;7.95;;;7.28;;
68921;SDS011;55959;51.244;5.724;2022-07-25T00:12:44;7.65;;;6.95;;
68921;SDS011;55959;51.244;5.724;2022-07-25T00:15:10;7.00;;;6.40;;
68921;SDS011;55959;51.244;5.724;2022-07-25T00:17:37;9.38;;;6.85;;
68921;SDS011;55959;51.244;5.724;2022-07-25T00:20:04;7.68;;;6.97;;
68921;SDS011;55959;51.244;5.724;2022-07-25T00:22:31;8.07;;;6.88;;
68921;SDS011;55959;51.244;5.724;2022-07-25T00:24:57;8.45;;;7.75;;
68921;SDS011;55959;51.244;5.724;2022-07-25T00:27:22;8.27;;;7.57;;
68921;SDS011;55959;51.244;5.724;2022-07-25T00:29:48;8.75;;;8.05;;
68921;SDS011;55959;51.244;5.724;2022-07-25T00:32:14;10.25;;;9.25;;
68921;SDS011;55959;51.244;5.724;2022-07-25T00:34:40;8.98;;;8.10;;
68921;SDS011;55959;51.244;5.724;2022-07-25T00:37:06;9.00;;;8.20;;
68921;SDS011;55959;51.244;5.724;2022-07-25T00:39:31;8.70;;;7.97;;
68921;SDS011;55959;51.244;5.724;2022-07-25T00:41:57;20.52;;;8.55;;
68921;SDS011;55959;51.244;5.724;2022-07-25T00:44:27;8.85;;;8.07;;
68921;SDS011;55959;51.244;5.724;2022-07-25T00:46:56;9.18;;;8.35;;
68921;SDS011;55959;51.244;5.724;2022-07-25T00:49:22;8.90;;;8.07;;
68921;SDS011;55959;51.244;5.724;2022-07-25T00:51:49;8.50;;;7.63;;
68921;SDS011;55959;51.244;5.724;2022-07-25T00:54:16;7.70;;;7.00;;
68921;SDS011;55959;51.244;5.724;2022-07-25T00:56:43;9.05;;;7.63;;
68921;SDS011;55959;51.244;5.724;2022-07-25T00:59:10;8.52;;;7.60;;
68921;SDS011;55959;51.244;5.724;2022-07-25T01:01:36;8.32;;;7.53;;
68921;SDS011;55959;51.244;5.724;2022-07-25T01:04:03;8.18;;;7.43;;
68921;SDS011;55959;51.244;5.724;2022-07-25T01:06:29;8.05;;;7.25;;
68921;SDS011;55959;51.244;5.724;2022-07-25T01:08:55;9.65;;;8.18;;
68921;SDS011;55959;51.244;5.724;2022-07-25T01:11:22;8.00;;;7.30;;
68921;SDS011;55959;51.244;5.724;2022-07-25T01:13:49;8.98;;;8.15;;
68921;SDS011;55959;51.244;5.724;2022-07-25T01:16:16;7.53;;;6.93;;
68921;SDS011;55959;51.244;5.724;2022-07-25T01:18:42;8.15;;;7.45;;
68921;SDS011;55959;51.244;5.724;2022-07-25T01:21:08;8.10;;;7.40;;
68921;SDS011;55959;51.244;5.724;2022-07-25T01:23:34;9.07;;;8.15;;
68921;SDS011;55959;51.244;5.724;2022-07-25T01:26:01;8.88;;;8.18;;
68921;SDS011;55959;51.244;5.724;2022-07-25T01:28:27;8.38;;;7.57;;
68921;SDS011;55959;51.244;5.724;2022-07-25T01:30:53;8.25;;;7.55;;
68921;SDS011;55959;51.244;5.724;2022-07-25T01:33:19;8.20;;;7.47;;
68921;SDS011;55959;51.244;5.724;2022-07-25T01:35:46;8.23;;;7.47;;
68921;SDS011;55959;51.244;5.724;2022-07-25T01:38:13;9.13;;;7.85;;
68921;SDS011;55959;51.244;5.724;2022-07-25T01:40:39;7.93;;;7.20;;
68921;SDS011;55959;51.244;5.724;2022-07-25T01:43:05;8.50;;;7.80;;
68921;SDS011;55959;51.244;5.724;2022-07-25T01:45:31;8.40;;;7.70;;
68921;SDS011;55959;51.244;5.724;2022-07-25T01:47:57;8.40;;;7.70;;
68921;SDS011;55959;51.244;5.724;2022-07-25T01:50:23;8.07;;;7.38;;
68921;SDS011;55959;51.244;5.724;2022-07-25T01:52:49;7.47;;;6.85;;
68921;SDS011;55959;51.244;5.724;2022-07-25T01:55:15;7.47;;;6.72;;
68921;SDS011;55959;51.244;5.724;2022-07-25T01:57:41;8.38;;;7.57;;
68921;SDS011;55959;51.244;5.724;2022-07-25T02:00:08;7.60;;;6.90;;
68921;SDS011;55959;51.244;5.724;2022-07-25T02:02:37;8.07;;;7.43;;
68921;SDS011;55959;51.244;5.724;2022-07-25T02:05:08;7.25;;;6.65;;
68921;SDS011;55959;51.244;5.724;2022-07-25T02:07:35;7.72;;;7.03;;
68921;SDS011;55959;51.244;5.724;2022-07-25T02:10:02;7.90;;;7.18;;
68921;SDS011;55959;51.244;5.724;2022-07-25T02:12:30;8.27;;;7.32;;
68921;SDS011;55959;51.244;5.724;2022-07-25T02:14:56;8.27;;;7.50;;
68921;SDS011;55959;51.244;5.724;2022-07-25T02:17:22;8.40;;;7.60;;
68921;SDS011;55959;51.244;5.724;2022-07-25T02:19:48;7.88;;;7.10;;
68921;SDS011;55959;51.244;5.724;2022-07-25T02:22:14;8.25;;;7.55;;
68921;SDS011;55959;51.244;5.724;2022-07-25T02:24:40;8.40;;;7.53;;
68921;SDS011;55959;51.244;5.724;2022-07-25T02:27:06;8.25;;;7.45;;
68921;SDS011;55959;51.244;5.724;2022-07-25T02:29:32;8.98;;;8.18;;
68921;SDS011;55959;51.244;5.724;2022-07-25T02:31:58;8.98;;;7.82;;
68921;SDS011;55959;51.244;5.724;2022-07-25T02:34:24;8.45;;;7.53;;
68921;SDS011;55959;51.244;5.724;2022-07-25T02:36:49;9.30;;;8.40;;
68921;SDS011;55959;51.244;5.724;2022-07-25T02:39:15;9.80;;;8.02;;
68921;SDS011;55959;51.244;5.724;2022-07-25T02:41:42;9.57;;;8.07;;
68921;SDS011;55959;51.244;5.724;2022-07-25T02:44:08;8.90;;;8.00;;
68921;SDS011;55959;51.244;5.724;2022-07-25T02:46:34;8.68;;;7.78;;
68921;SDS011;55959;51.244;5.724;2022-07-25T02:49:00;9.82;;;8.20;;
68921;SDS011;55959;51.244;5.724;2022-07-25T02:51:25;9.60;;;8.48;;
68921;SDS011;55959;51.244;5.724;2022-07-25T02:53:51;9.73;;;7.50;;
68921;SDS011;55959;51.244;5.724;2022-07-25T02:56:17;11.48;;;8.60;;
68921;SDS011;55959;51.244;5.724;2022-07-25T02:58:43;9.48;;;7.95;;
68921;SDS011;55959;51.244;5.724;2022-07-25T03:01:08;10.13;;;8.25;;
68921;SDS011;55959;51.244;5.724;2022-07-25T03:03:34;10.27;;;8.30;;
68921;SDS011;55959;51.244;5.724;2022-07-25T03:06:00;11.40;;;9.20;;
68921;SDS011;55959;51.244;5.724;2022-07-25T03:08:26;9.82;;;8.30;;
68921;SDS011;55959;51.244;5.724;2022-07-25T03:10:52;10.13;;;7.80;;
68921;SDS011;55959;51.244;5.724;2022-07-25T03:13:18;9.93;;;8.07;;
68921;SDS011;55959;51.244;5.724;2022-07-25T03:15:44;9.05;;;7.82;;
68921;SDS011;55959;51.244;5.724;2022-07-25T03:18:10;10.38;;;7.53;;
68921;SDS011;55959;51.244;5.724;2022-07-25T03:20:35;10.25;;;7.90;;
68921;SDS011;55959;51.244;5.724;2022-07-25T03:23:02;8.80;;;7.85;;
68921;SDS011;55959;51.244;5.724;2022-07-25T03:25:27;10.40;;;8.40;;
68921;SDS011;55959;51.244;5.724;2022-07-25T03:27:53;9.63;;;7.70;;
68921;SDS011;55959;51.244;5.724;2022-07-25T03:30:20;10.70;;;8.60;;
68921;SDS011;55959;51.244;5.724;2022-07-25T03:32:46;9.50;;;8.50;;
68921;SDS011;55959;51.244;5.724;2022-07-25T03:35:12;10.00;;;8.27;;
68921;SDS011;55959;51.244;5.724;2022-07-25T03:37:38;10.77;;;8.60;;
68921;SDS011;55959;51.244;5.724;2022-07-25T03:40:04;10.43;;;8.05;;
68921;SDS011;55959;51.244;5.724;2022-07-25T03:42:30;10.63;;;8.70;;
68921;SDS011;55959;51.244;5.724;2022-07-25T03:44:56;10.18;;;8.30;;
68921;SDS011;55959;51.244;5.724;2022-07-25T03:47:23;9.48;;;8.48;;
68921;SDS011;55959;51.244;5.724;2022-07-25T03:49:48;9.90;;;8.40;;
68921;SDS011;55959;51.244;5.724;2022-07-25T03:52:14;11.27;;;8.25;;
68921;SDS011;55959;51.244;5.724;2022-07-25T03:54:40;9.93;;;7.90;;
68921;SDS011;55959;51.244;5.724;2022-07-25T03:57:05;9.82;;;7.55;;
68921;SDS011;55959;51.244;5.724;2022-07-25T03:59:31;8.93;;;7.70;;
68921;SDS011;55959;51.244;5.724;2022-07-25T04:01:57;10.55;;;7.65;;
68921;SDS011;55959;51.244;5.724;2022-07-25T04:04:23;9.70;;;7.30;;
68921;SDS011;55959;51.244;5.724;2022-07-25T04:06:48;8.43;;;7.45;;
68921;SDS011;55959;51.244;5.724;2022-07-25T04:09:14;10.13;;;8.18;;
68921;SDS011;55959;51.244;5.724;2022-07-25T04:11:40;7.28;;;6.53;;
68921;SDS011;55959;51.244;5.724;2022-07-25T04:14:06;9.02;;;7.30;;
68921;SDS011;55959;51.244;5.724;2022-07-25T04:16:32;8.77;;;7.15;;
68921;SDS011;55959;51.244;5.724;2022-07-25T04:18:57;9.00;;;6.93;;
68921;SDS011;55959;51.244;5.724;2022-07-25T04:21:24;8.75;;;7.63;;
68921;SDS011;55959;51.244;5.724;2022-07-25T04:23:50;8.98;;;7.65;;
68921;SDS011;55959;51.244;5.724;2022-07-25T04:26:16;8.80;;;7.30;;
68921;SDS011;55959;51.244;5.724;2022-07-25T04:28:42;7.55;;;6.47;;
68921;SDS011;55959;51.244;5.724;2022-07-25T04:31:08;8.45;;;7.20;;
68921;SDS011;55959;51.244;5.724;2022-07-25T04:33:37;8.52;;;7.43;;
68921;SDS011;55959;51.244;5.724;2022-07-25T04:36:04;7.93;;;6.97;;
68921;SDS011;55959;51.244;5.724;2022-07-25T04:38:30;7.78;;;6.97;;
68921;SDS011;55959;51.244;5.724;2022-07-25T04:40:57;7.85;;;6.63;;
68921;SDS011;55959;51.244;5.724;2022-07-25T04:43:23;8.38;;;7.50;;
68921;SDS011;55959;51.244;5.724;2022-07-25T04:45:49;8.70;;;7.20;;
68921;SDS011;55959;51.244;5.724;2022-07-25T04:48:15;7.35;;;6.50;;
68921;SDS011;55959;51.244;5.724;2022-07-25T04:50:40;7.30;;;5.93;;
68921;SDS011;55959;51.244;5.724;2022-07-25T04:53:06;8.02;;;6.40;;
68921;SDS011;55959;51.244;5.724;2022-07-25T04:55:32;7.90;;;6.68;;
68921;SDS011;55959;51.244;5.724;2022-07-25T04:57:59;7.40;;;6.70;;
68921;SDS011;55959;51.244;5.724;2022-07-25T05:00:25;7.68;;;6.82;;
68921;SDS011;55959;51.244;5.724;2022-07-25T05:02:50;7.25;;;6.13;;
68921;SDS011;55959;51.244;5.724;2022-07-25T05:05:17;8.02;;;6.35;;
68921;SDS011;55959;51.244;5.724;2022-07-25T05:07:43;7.20;;;6.13;;
68921;SDS011;55959;51.244;5.724;2022-07-25T05:10:09;7.95;;;6.55;;
68921;SDS011;55959;51.244;5.724;2022-07-25T05:12:35;10.05;;;7.25;;
68921;SDS011;55959;51.244;5.724;2022-07-25T05:15:02;8.80;;;6.65;;
68921;SDS011;55959;51.244;5.724;2022-07-25T05:17:29;8.70;;;6.40;;
68921;SDS011;55959;51.244;5.724;2022-07-25T05:19:56;7.35;;;6.13;;
68921;SDS011;55959;51.244;5.724;2022-07-25T05:22:22;8.90;;;7.13;;
68921;SDS011;55959;51.244;5.724;2022-07-25T05:24:49;10.68;;;7.65;;
68921;SDS011;55959;51.244;5.724;2022-07-25T05:27:14;7.45;;;5.90;;
68921;SDS011;55959;51.244;5.724;2022-07-25T05:29:40;6.88;;;6.28;;
68921;SDS011;55959;51.244;5.724;2022-07-25T05:32:06;5.30;;;4.80;;
68921;SDS011;55959;51.244;5.724;2022-07-25T05:34:32;5.88;;;5.28;;
68921;SDS011;55959;51.244;5.724;2022-07-25T05:36:57;5.20;;;4.70;;
68921;SDS011;55959;51.244;5.724;2022-07-25T05:39:23;5.65;;;5.15;;
68921;SDS011;55959;51.244;5.724;2022-07-25T05:41:49;5.90;;;5.30;;
68921;SDS011;55959;51.244;5.724;2022-07-25T05:44:15;5.10;;;4.60;;
68921;SDS011;55959;51.244;5.724;2022-07-25T05:46:41;6.13;;;5.00;;
68921;SDS011;55959;51.244;5.724;2022-07-25T05:49:06;5.32;;;4.82;;
68921;SDS011;55959;51.244;5.724;2022-07-25T05:51:32;5.32;;;4.90;;
68921;SDS011;55959;51.244;5.724;2022-07-25T05:53:58;6.28;;;5.68;;
68921;SDS011;55959;51.244;5.724;2022-07-25T05:56:25;4.80;;;4.40;;
68921;SDS011;55959;51.244;5.724;2022-07-25T05:58:51;5.03;;;4.53;;
68921;SDS011;55959;51.244;5.724;2022-07-25T06:01:17;5.38;;;4.88;;
68921;SDS011;55959;51.244;5.724;2022-07-25T06:03:43;5.35;;;4.88;;
68921;SDS011;55959;51.244;5.724;2022-07-25T06:06:08;4.82;;;4.45;;
68921;SDS011;55959;51.244;5.724;2022-07-25T06:08:35;4.63;;;4.22;;
68921;SDS011;55959;51.244;5.724;2022-07-25T06:11:03;3.67;;;3.38;;
68921;SDS011;55959;51.244;5.724;2022-07-25T06:13:31;4.32;;;3.92;;
68921;SDS011;55959;51.244;5.724;2022-07-25T06:15:58;6.05;;;4.50;;
68921;SDS011;55959;51.244;5.724;2022-07-25T06:18:24;4.60;;;4.20;;
68921;SDS011;55959;51.244;5.724;2022-07-25T06:20:50;4.63;;;4.22;;
68921;SDS011;55959;51.244;5.724;2022-07-25T06:23:16;4.63;;;4.22;;
68921;SDS011;55959;51.244;5.724;2022-07-25T06:25:46;5.60;;;4.07;;
68921;SDS011;55959;51.244;5.724;2022-07-25T06:28:12;4.80;;;4.22;;
68921;SDS011;55959;51.244;5.724;2022-07-25T06:30:45;5.53;;;5.00;;
68921;SDS011;55959;51.244;5.724;2022-07-25T06:33:12;5.40;;;5.00;;
68921;SDS011;55959;51.244;5.724;2022-07-25T06:35:38;5.03;;;4.57;;
68921;SDS011;55959;51.244;5.724;2022-07-25T06:38:03;4.95;;;4.35;;
68921;SDS011;55959;51.244;5.724;2022-07-25T06:40:29;4.53;;;4.13;;
68921;SDS011;55959;51.244;5.724;2022-07-25T06:42:56;5.15;;;4.30;;
68921;SDS011;55959;51.244;5.724;2022-07-25T06:45:22;5.03;;;4.63;;
68921;SDS011;55959;51.244;5.724;2022-07-25T06:47:48;5.05;;;4.65;;
68921;SDS011;55959;51.244;5.724;2022-07-25T06:50:15;5.22;;;4.72;;
68921;SDS011;55959;51.244;5.724;2022-07-25T06:52:45;4.68;;;3.95;;
68921;SDS011;55959;51.244;5.724;2022-07-25T06:55:11;4.80;;;4.40;;
68921;SDS011;55959;51.244;5.724;2022-07-25T06:57:38;6.45;;;4.35;;
68921;SDS011;55959;51.244;5.724;2022-07-25T07:00:06;4.47;;;3.92;;
68921;SDS011;55959;51.244;5.724;2022-07-25T07:02:45;4.18;;;3.80;;
68921;SDS011;55959;51.244;5.724;2022-07-25T07:05:24;4.15;;;3.55;;
68921;SDS011;55959;51.244;5.724;2022-07-25T07:07:56;3.92;;;3.55;;
68921;SDS011;55959;51.244;5.724;2022-07-25T07:10:22;3.70;;;3.40;;
68921;SDS011;55959;51.244;5.724;2022-07-25T07:12:49;3.50;;;3.20;;
68921;SDS011;55959;51.244;5.724;2022-07-25T07:15:14;3.63;;;3.33;;
68921;SDS011;55959;51.244;5.724;2022-07-25T07:17:41;3.30;;;3.00;;
68921;SDS011;55959;51.244;5.724;2022-07-25T07:20:07;4.95;;;3.20;;
68921;SDS011;55959;51.244;5.724;2022-07-25T07:22:45;3.53;;;3.22;;
68921;SDS011;55959;51.244;5.724;2022-07-25T07:25:13;3.63;;;3.33;;
68921;SDS011;55959;51.244;5.724;2022-07-25T07:27:40;3.75;;;3.40;;
68921;SDS011;55959;51.244;5.724;2022-07-25T07:30:06;3.47;;;3.17;;
68921;SDS011;55959;51.244;5.724;2022-07-25T07:32:33;4.05;;;3.28;;
68921;SDS011;55959;51.244;5.724;2022-07-25T07:34:59;3.40;;;3.10;;
68921;SDS011;55959;51.244;5.724;2022-07-25T07:37:25;2.97;;;2.78;;
68921;SDS011;55959;51.244;5.724;2022-07-25T07:39:51;3.20;;;2.40;;
68921;SDS011;55959;51.244;5.724;2022-07-25T07:42:16;2.85;;;2.65;;
68921;SDS011;55959;51.244;5.724;2022-07-25T07:44:42;3.75;;;2.53;;
68921;SDS011;55959;51.244;5.724;2022-07-25T07:47:08;2.78;;;2.58;;
68921;SDS011;55959;51.244;5.724;2022-07-25T07:49:34;3.53;;;2.30;;
68921;SDS011;55959;51.244;5.724;2022-07-25T07:52:00;3.05;;;2.83;;
68921;SDS011;55959;51.244;5.724;2022-07-25T07:54:26;2.42;;;2.20;;
68921;SDS011;55959;51.244;5.724;2022-07-25T07:57:10;4.43;;;2.83;;
68921;SDS011;55959;51.244;5.724;2022-07-25T07:59:36;3.47;;;2.35;;
68921;SDS011;55959;51.244;5.724;2022-07-25T08:02:02;3.28;;;2.55;;
68921;SDS011;55959;51.244;5.724;2022-07-25T08:04:28;3.85;;;2.35;;
68921;SDS011;55959;51.244;5.724;2022-07-25T08:06:54;4.40;;;2.33;;
68921;SDS011;55959;51.244;5.724;2022-07-25T08:09:19;2.17;;;1.90;;
68921;SDS011;55959;51.244;5.724;2022-07-25T08:11:45;3.33;;;2.50;;
68921;SDS011;55959;51.244;5.724;2022-07-25T08:14:11;2.28;;;2.05;;
68921;SDS011;55959;51.244;5.724;2022-07-25T08:16:36;2.03;;;1.83;;
68921;SDS011;55959;51.244;5.724;2022-07-25T08:19:02;2.72;;;2.00;;
68921;SDS011;55959;51.244;5.724;2022-07-25T08:21:28;3.63;;;1.90;;
68921;SDS011;55959;51.244;5.724;2022-07-25T08:23:54;2.10;;;1.90;;
68921;SDS011;55959;51.244;5.724;2022-07-25T08:26:19;2.67;;;1.92;;
68921;SDS011;55959;51.244;5.724;2022-07-25T08:28:45;3.67;;;2.22;;
68921;SDS011;55959;51.244;5.724;2022-07-25T08:31:11;2.00;;;1.90;;
68921;SDS011;55959;51.244;5.724;2022-07-25T08:33:36;2.42;;;2.08;;
68921;SDS011;55959;51.244;5.724;2022-07-25T08:36:02;2.22;;;1.42;;
68921;SDS011;55959;51.244;5.724;2022-07-25T08:38:29;3.45;;;2.00;;
68921;SDS011;55959;51.244;5.724;2022-07-25T08:40:55;2.05;;;1.83;;
68921;SDS011;55959;51.244;5.724;2022-07-25T08:43:22;3.20;;;2.10;;
68921;SDS011;55959;51.244;5.724;2022-07-25T08:45:52;2.63;;;1.80;;
68921;SDS011;55959;51.244;5.724;2022-07-25T08:48:19;2.17;;;1.70;;
68921;SDS011;55959;51.244;5.724;2022-07-25T08:50:48;2.70;;;1.83;;
68921;SDS011;55959;51.244;5.724;2022-07-25T08:53:17;1.67;;;1.58;;
68921;SDS011;55959;51.244;5.724;2022-07-25T08:55:44;2.72;;;1.35;;
68921;SDS011;55959;51.244;5.724;2022-07-25T08:58:11;2.85;;;1.40;;
68921;SDS011;55959;51.244;5.724;2022-07-25T09:00:39;1.67;;;1.33;;
68921;SDS011;55959;51.244;5.724;2022-07-25T09:03:06;4.38;;;1.30;;
68921;SDS011;55959;51.244;5.724;2022-07-25T09:05:32;2.90;;;1.35;;
68921;SDS011;55959;51.244;5.724;2022-07-25T09:08:13;3.25;;;1.60;;
68921;SDS011;55959;51.244;5.724;2022-07-25T09:10:45;1.88;;;1.52;;
68921;SDS011;55959;51.244;5.724;2022-07-25T09:13:17;3.75;;;1.60;;
68921;SDS011;55959;51.244;5.724;2022-07-25T09:15:45;3.33;;;1.70;;
68921;SDS011;55959;51.244;5.724;2022-07-25T09:18:24;3.05;;;1.60;;
68921;SDS011;55959;51.244;5.724;2022-07-25T09:20:56;3.25;;;1.50;;
68921;SDS011;55959;51.244;5.724;2022-07-25T09:23:30;3.67;;;2.30;;
68921;SDS011;55959;51.244;5.724;2022-07-25T09:26:09;2.65;;;1.77;;
68921;SDS011;55959;51.244;5.724;2022-07-25T09:31:08;4.22;;;2.08;;
68921;SDS011;55959;51.244;5.724;2022-07-25T09:33:43;2.53;;;1.80;;
68921;SDS011;55959;51.244;5.724;2022-07-25T09:36:20;2.45;;;1.50;;
68921;SDS011;55959;51.244;5.724;2022-07-25T09:41:18;2.58;;;1.70;;
68921;SDS011;55959;51.244;5.724;2022-07-25T09:43:44;2.92;;;1.75;;
68921;SDS011;55959;51.244;5.724;2022-07-25T09:46:10;2.25;;;1.77;;
68921;SDS011;55959;51.244;5.724;2022-07-25T09:48:37;3.15;;;1.70;;
68921;SDS011;55959;51.244;5.724;2022-07-25T09:51:05;4.65;;;1.90;;
68921;SDS011;55959;51.244;5.724;2022-07-25T09:53:31;3.00;;;1.90;;
68921;SDS011;55959;51.244;5.724;2022-07-25T09:55:57;1.67;;;1.35;;
68921;SDS011;55959;51.244;5.724;2022-07-25T09:58:25;3.38;;;1.50;;
68921;SDS011;55959;51.244;5.724;2022-07-25T10:00:53;3.40;;;1.50;;
68921;SDS011;55959;51.244;5.724;2022-07-25T10:03:28;2.28;;;1.45;;
68921;SDS011;55959;51.244;5.724;2022-07-25T10:08:49;2.45;;;1.52;;
68921;SDS011;55959;51.244;5.724;2022-07-25T10:11:25;3.15;;;1.20;;
68921;SDS011;55959;51.244;5.724;2022-07-25T10:13:52;2.10;;;1.20;;
68921;SDS011;55959;51.244;5.724;2022-07-25T10:16:19;1.85;;;1.23;;
68921;SDS011;55959;51.244;5.724;2022-07-25T10:18:53;2.25;;;1.50;;
68921;SDS011;55959;51.244;5.724;2022-07-25T10:21:22;1.67;;;1.50;;
68921;SDS011;55959;51.244;5.724;2022-07-25T10:24:24;3.38;;;1.80;;
68921;SDS011;55959;51.244;5.724;2022-07-25T10:26:50;2.22;;;1.20;;
68921;SDS011;55959;51.244;5.724;2022-07-25T10:29:17;2.28;;;1.80;;
68921;SDS011;55959;51.244;5.724;2022-07-25T10:31:43;1.77;;;1.30;;
68921;SDS011;55959;51.244;5.724;2022-07-25T10:34:12;1.80;;;1.45;;
68921;SDS011;55959;51.244;5.724;2022-07-25T10:36:42;2.72;;;1.50;;
68921;SDS011;55959;51.244;5.724;2022-07-25T10:39:15;2.15;;;1.40;;
68921;SDS011;55959;51.244;5.724;2022-07-25T10:41:48;2.85;;;1.35;;
68921;SDS011;55959;51.244;5.724;2022-07-25T10:44:19;2.60;;;1.73;;
68921;SDS011;55959;51.244;5.724;2022-07-25T10:46:45;1.77;;;1.50;;
68921;SDS011;55959;51.244;5.724;2022-07-25T10:49:22;4.85;;;1.60;;
68921;SDS011;55959;51.244;5.724;2022-07-25T10:51:55;1.50;;;1.38;;
68921;SDS011;55959;51.244;5.724;2022-07-25T10:54:24;2.92;;;1.48;;
68921;SDS011;55959;51.244;5.724;2022-07-25T10:56:55;2.40;;;1.58;;
68921;SDS011;55959;51.244;5.724;2022-07-25T10:59:26;4.85;;;2.13;;
68921;SDS011;55959;51.244;5.724;2022-07-25T11:01:57;3.15;;;1.60;;
68921;SDS011;55959;51.244;5.724;2022-07-25T11:04:23;3.83;;;1.48;;
68921;SDS011;55959;51.244;5.724;2022-07-25T11:06:49;3.40;;;1.55;;
68921;SDS011;55959;51.244;5.724;2022-07-25T11:11:53;3.45;;;2.28;;
68921;SDS011;55959;51.244;5.724;2022-07-25T11:14:37;2.13;;;1.67;;
68921;SDS011;55959;51.244;5.724;2022-07-25T11:17:16;2.13;;;1.70;;
68921;SDS011;55959;51.244;5.724;2022-07-25T11:19:57;2.08;;;1.80;;
68921;SDS011;55959;51.244;5.724;2022-07-25T11:22:26;3.53;;;1.98;;
68921;SDS011;55959;51.244;5.724;2022-07-25T11:24:53;3.65;;;1.70;;
68921;SDS011;55959;51.244;5.724;2022-07-25T11:30:05;3.03;;;1.73;;
68921;SDS011;55959;51.244;5.724;2022-07-25T11:35:11;1.77;;;1.60;;
68921;SDS011;55959;51.244;5.724;2022-07-25T11:37:39;2.17;;;1.48;;
68921;SDS011;55959;51.244;5.724;2022-07-25T11:40:08;3.63;;;1.50;;
68921;SDS011;55959;51.244;5.724;2022-07-25T11:42:42;2.13;;;1.60;;
68921;SDS011;55959;51.244;5.724;2022-07-25T11:45:18;1.40;;;1.13;;
68921;SDS011;55959;51.244;5.724;2022-07-25T11:48:06;1.75;;;1.50;;
68921;SDS011;55959;51.244;5.724;2022-07-25T11:50:35;2.33;;;2.10;;
68921;SDS011;55959;51.244;5.724;2022-07-25T11:53:04;2.83;;;1.75;;
68921;SDS011;55959;51.244;5.724;2022-07-25T11:55:32;2.13;;;1.42;;
68921;SDS011;55959;51.244;5.724;2022-07-25T11:58:02;2.40;;;1.75;;
68921;SDS011;55959;51.244;5.724;2022-07-25T12:00:29;3.03;;;1.55;;
68921;SDS011;55959;51.244;5.724;2022-07-25T12:03:06;3.25;;;1.80;;
68921;SDS011;55959;51.244;5.724;2022-07-25T12:05:40;1.63;;;1.52;;
68921;SDS011;55959;51.244;5.724;2022-07-25T12:08:10;1.60;;;1.50;;
68921;SDS011;55959;51.244;5.724;2022-07-25T12:10:42;2.67;;;1.58;;
68921;SDS011;55959;51.244;5.724;2022-07-25T12:13:20;3.40;;;1.70;;
68921;SDS011;55959;51.244;5.724;2022-07-25T12:15:51;2.70;;;1.50;;
68921;SDS011;55959;51.244;5.724;2022-07-25T12:18:17;2.63;;;1.75;;
68921;SDS011;55959;51.244;5.724;2022-07-25T12:20:43;2.65;;;1.90;;
68921;SDS011;55959;51.244;5.724;2022-07-25T12:23:10;2.95;;;2.03;;
68921;SDS011;55959;51.244;5.724;2022-07-25T12:25:39;2.35;;;1.63;;
68921;SDS011;55959;51.244;5.724;2022-07-25T12:28:08;2.90;;;2.03;;
68921;SDS011;55959;51.244;5.724;2022-07-25T12:30:36;2.80;;;1.52;;
68921;SDS011;55959;51.244;5.724;2022-07-25T12:33:03;2.58;;;1.60;;
68921;SDS011;55959;51.244;5.724;2022-07-25T12:35:30;2.40;;;1.60;;
68921;SDS011;55959;51.244;5.724;2022-07-25T12:37:56;2.30;;;1.60;;
68921;SDS011;55959;51.244;5.724;2022-07-25T12:40:22;2.95;;;1.70;;
68921;SDS011;55959;51.244;5.724;2022-07-25T12:42:48;2.58;;;1.90;;
68921;SDS011;55959;51.244;5.724;2022-07-25T12:45:15;2.00;;;1.60;;
68921;SDS011;55959;51.244;5.724;2022-07-25T12:47:45;3.00;;;2.03;;
68921;SDS011;55959;51.244;5.724;2022-07-25T12:50:12;8.07;;;1.85;;
68921;SDS011;55959;51.244;5.724;2022-07-25T12:52:40;3.35;;;1.50;;
68921;SDS011;55959;51.244;5.724;2022-07-25T12:55:08;2.80;;;1.63;;
68921;SDS011;55959;51.244;5.724;2022-07-25T12:57:44;3.55;;;1.60;;
68921;SDS011;55959;51.244;5.724;2022-07-25T13:00:12;5.70;;;1.92;;
68921;SDS011;55959;51.244;5.724;2022-07-25T13:02:40;2.67;;;1.92;;
68921;SDS011;55959;51.244;5.724;2022-07-25T13:05:06;2.85;;;1.80;;
68921;SDS011;55959;51.244;5.724;2022-07-25T13:07:33;2.90;;;1.73;;
68921;SDS011;55959;51.244;5.724;2022-07-25T13:09:59;3.30;;;1.83;;
68921;SDS011;55959;51.244;5.724;2022-07-25T13:12:26;2.70;;;1.60;;
68921;SDS011;55959;51.244;5.724;2022-07-25T13:14:52;2.70;;;2.00;;
68921;SDS011;55959;51.244;5.724;2022-07-25T13:17:17;4.43;;;2.20;;
68921;SDS011;55959;51.244;5.724;2022-07-25T13:19:43;4.97;;;2.17;;
68921;SDS011;55959;51.244;5.724;2022-07-25T13:22:09;2.13;;;1.67;;
68921;SDS011;55959;51.244;5.724;2022-07-25T13:24:35;3.13;;;1.77;;
68921;SDS011;55959;51.244;5.724;2022-07-25T13:27:04;2.60;;;1.55;;
68921;SDS011;55959;51.244;5.724;2022-07-25T13:29:30;2.75;;;1.77;;
68921;SDS011;55959;51.244;5.724;2022-07-25T13:31:57;3.97;;;1.95;;
68921;SDS011;55959;51.244;5.724;2022-07-25T13:34:23;2.00;;;1.20;;
68921;SDS011;55959;51.244;5.724;2022-07-25T13:36:48;2.03;;;1.42;;
68921;SDS011;55959;51.244;5.724;2022-07-25T13:39:14;1.98;;;1.73;;
68921;SDS011;55959;51.244;5.724;2022-07-25T13:41:40;4.10;;;1.52;;
68921;SDS011;55959;51.244;5.724;2022-07-25T13:44:06;2.97;;;1.70;;
68921;SDS011;55959;51.244;5.724;2022-07-25T13:46:31;3.63;;;1.83;;
68921;SDS011;55959;51.244;5.724;2022-07-25T13:48:58;2.17;;;1.70;;
68921;SDS011;55959;51.244;5.724;2022-07-25T13:51:23;3.20;;;1.75;;
68921;SDS011;55959;51.244;5.724;2022-07-25T13:53:50;1.90;;;1.60;;
68921;SDS011;55959;51.244;5.724;2022-07-25T13:56:16;2.00;;;1.40;;
68921;SDS011;55959;51.244;5.724;2022-07-25T13:58:42;1.98;;;1.30;;
68921;SDS011;55959;51.244;5.724;2022-07-25T14:01:08;2.38;;;1.30;;
68921;SDS011;55959;51.244;5.724;2022-07-25T14:03:36;3.50;;;1.50;;
68921;SDS011;55959;51.244;5.724;2022-07-25T14:06:04;1.85;;;1.40;;
68921;SDS011;55959;51.244;5.724;2022-07-25T14:08:34;1.50;;;1.15;;
68921;SDS011;55959;51.244;5.724;2022-07-25T14:11:00;1.70;;;1.20;;
68921;SDS011;55959;51.244;5.724;2022-07-25T14:13:26;2.83;;;1.30;;
68921;SDS011;55959;51.244;5.724;2022-07-25T14:15:51;1.90;;;1.20;;
68921;SDS011;55959;51.244;5.724;2022-07-25T14:18:17;1.98;;;1.40;;
68921;SDS011;55959;51.244;5.724;2022-07-25T14:20:43;3.03;;;1.45;;
68921;SDS011;55959;51.244;5.724;2022-07-25T14:23:09;3.38;;;1.40;;
68921;SDS011;55959;51.244;5.724;2022-07-25T14:25:34;2.60;;;1.58;;
68921;SDS011;55959;51.244;5.724;2022-07-25T14:28:00;3.25;;;1.20;;
68921;SDS011;55959;51.244;5.724;2022-07-25T14:30:26;2.28;;;1.50;;
68921;SDS011;55959;51.244;5.724;2022-07-25T14:32:52;1.35;;;1.00;;
68921;SDS011;55959;51.244;5.724;2022-07-25T14:35:17;2.17;;;1.30;;
68921;SDS011;55959;51.244;5.724;2022-07-25T14:37:44;2.35;;;1.33;;
68921;SDS011;55959;51.244;5.724;2022-07-25T14:40:11;1.98;;;1.50;;
68921;SDS011;55959;51.244;5.724;2022-07-25T14:42:38;3.08;;;1.42;;
68921;SDS011;55959;51.244;5.724;2022-07-25T14:45:05;2.50;;;1.30;;
68921;SDS011;55959;51.244;5.724;2022-07-25T14:47:33;3.30;;;1.33;;
68921;SDS011;55959;51.244;5.724;2022-07-25T14:49:58;2.45;;;1.52;;
68921;SDS011;55959;51.244;5.724;2022-07-25T14:52:24;1.80;;;1.15;;
68921;SDS011;55959;51.244;5.724;2022-07-25T14:54:50;3.75;;;1.58;;
68921;SDS011;55959;51.244;5.724;2022-07-25T14:57:15;1.63;;;1.15;;
68921;SDS011;55959;51.244;5.724;2022-07-25T14:59:41;2.42;;;1.30;;
68921;SDS011;55959;51.244;5.724;2022-07-25T15:02:07;2.22;;;1.38;;
68921;SDS011;55959;51.244;5.724;2022-07-25T15:04:33;2.33;;;1.23;;